sensor_id;sensor_type;location;lat;lon;timestamp;pressure;altitude;pressure_sealevel;temperature;humidity
64078;BME280;51039;49.696;10.808;2023-12-07T00:01:05;98544.22;;;0.75;100.00
64078;BME280;51039;49.696;10.808;2023-12-07T00:03:30;98547.81;;;0.74;100.00
64078;BME280;51039;49.696;10.808;2023-12-07T00:05:56;98543.41;;;0.74;100.00
64078;BME280;51039;49.696;10.808;2023-12-07T00:08:21;98546.00;;;0.74;100.00
64078;BME280;51039;49.696;10.808;2023-12-07T00:10:46;98549.88;;;0.80;100.00
64078;BME280;51039;49.696;10.808;2023-12-07T00:13:11;98543.28;;;0.86;100.00
64078;BME280;51039;49.696;10.808;2023-12-07T00:15:37;98546.84;;;0.85;100.00
64078;BME280;51039;49.696;10.808;2023-12-07T00:18:02;98548.50;;;0.86;100.00
64078;BME280;51039;49.696;10.808;2023-12-07T00:20:28;98553.28;;;0.81;100.00
64078;BME280;51039;49.696;10.808;2023-12-07T00:22:54;98554.94;;;0.82;100.00
64078;BME280;51039;49.696;10.808;2023-12-07T00:25:20;98560.97;;;0.82;100.00
64078;BME280;51039;49.696;10.808;2023-12-07T00:27:45;98560.72;;;0.85;100.00
64078;BME280;51039;49.696;10.808;2023-12-07T00:30:11;98570.84;;;0.88;100.00
64078;BME280;51039;49.696;10.808;2023-12-07T00:32:36;98570.59;;;0.91;100.00
64078;BME280;51039;49.696;10.808;2023-12-07T00:35:02;98568.94;;;0.90;100.00
64078;BME280;51039;49.696;10.808;2023-12-07T00:37:27;98570.59;;;0.91;100.00
64078;BME280;51039;49.696;10.808;2023-12-07T00:39:52;98566.19;;;0.92;100.00
64078;BME280;51039;49.696;10.808;2023-12-07T00:42:18;98574.72;;;0.94;100.00
64078;BME280;51039;49.696;10.808;2023-12-07T00:44:43;98573.63;;;0.87;100.00
64078;BME280;51039;49.696;10.808;2023-12-07T00:47:08;98584.75;;;0.89;100.00
64078;BME280;51039;49.696;10.808;2023-12-07T00:49:37;98587.63;;;0.86;100.00
64078;BME280;51039;49.696;10.808;2023-12-07T00:52:02;98576.50;;;0.84;100.00
64078;BME280;51039;49.696;10.808;2023-12-07T00:54:28;98582.41;;;0.86;100.00
64078;BME280;51039;49.696;10.808;2023-12-07T00:56:53;98586.94;;;0.84;100.00
64078;BME280;51039;49.696;10.808;2023-12-07T00:59:19;98585.41;;;0.81;100.00
64078;BME280;51039;49.696;10.808;2023-12-07T01:01:44;98586.78;;;0.85;100.00
64078;BME280;51039;49.696;10.808;2023-12-07T01:04:09;98586.50;;;0.78;100.00
64078;BME280;51039;49.696;10.808;2023-12-07T01:06:34;98590.91;;;0.78;100.00
64078;BME280;51039;49.696;10.808;2023-12-07T01:09:00;98589.53;;;0.84;100.00
64078;BME280;51039;49.696;10.808;2023-12-07T01:11:25;98595.84;;;0.81;100.00
64078;BME280;51039;49.696;10.808;2023-12-07T01:13:50;98597.47;;;0.82;100.00
64078;BME280;51039;49.696;10.808;2023-12-07T01:16:15;98601.31;;;0.78;100.00
64078;BME280;51039;49.696;10.808;2023-12-07T01:18:41;98609.72;;;0.82;100.00
64078;BME280;51039;49.696;10.808;2023-12-07T01:21:06;98613.69;;;0.86;100.00
64078;BME280;51039;49.696;10.808;2023-12-07T01:23:31;98615.19;;;0.88;100.00
64078;BME280;51039;49.696;10.808;2023-12-07T01:25:57;98616.72;;;0.91;100.00
64078;BME280;51039;49.696;10.808;2023-12-07T01:28:22;98626.31;;;0.90;100.00
64078;BME280;51039;49.696;10.808;2023-12-07T01:30:48;98626.47;;;0.89;100.00
64078;BME280;51039;49.696;10.808;2023-12-07T01:33:13;98630.03;;;0.88;100.00
64078;BME280;51039;49.696;10.808;2023-12-07T01:35:38;98636.22;;;0.87;100.00
64078;BME280;51039;49.696;10.808;2023-12-07T01:38:04;98636.22;;;0.87;100.00
64078;BME280;51039;49.696;10.808;2023-12-07T01:40:29;98639.78;;;0.86;100.00
64078;BME280;51039;49.696;10.808;2023-12-07T01:42:54;98644.53;;;0.81;100.00
64078;BME280;51039;49.696;10.808;2023-12-07T01:45:20;98639.22;;;0.82;100.00
64078;BME280;51039;49.696;10.808;2023-12-07T01:47:45;98653.22;;;0.81;100.00
64078;BME280;51039;49.696;10.808;2023-12-07T01:50:12;98648.81;;;0.82;100.00
64078;BME280;51039;49.696;10.808;2023-12-07T01:52:45;98654.56;;;0.75;100.00
64078;BME280;51039;49.696;10.808;2023-12-07T01:55:13;98647.69;;;0.74;100.00
64078;BME280;51039;49.696;10.808;2023-12-07T01:57:39;98650.31;;;0.74;100.00
64078;BME280;51039;49.696;10.808;2023-12-07T02:00:06;98654.41;;;0.77;100.00
64078;BME280;51039;49.696;10.808;2023-12-07T02:02:32;98654.28;;;0.78;100.00
64078;BME280;51039;49.696;10.808;2023-12-07T02:04:57;98645.91;;;0.75;100.00
64078;BME280;51039;49.696;10.808;2023-12-07T02:07:23;98652.91;;;0.74;100.00
64078;BME280;51039;49.696;10.808;2023-12-07T02:09:48;98650.44;;;0.73;100.00
64078;BME280;51039;49.696;10.808;2023-12-07T02:12:14;98654.56;;;0.75;100.00
64078;BME280;51039;49.696;10.808;2023-12-07T02:14:39;98651.00;;;0.76;100.00
64078;BME280;51039;49.696;10.808;2023-12-07T02:19:55;98646.59;;;0.77;100.00
64078;BME280;51039;49.696;10.808;2023-12-07T02:22:32;98652.66;;;0.77;100.00
64078;BME280;51039;49.696;10.808;2023-12-07T02:25:05;98651.13;;;0.75;100.00
64078;BME280;51039;49.696;10.808;2023-12-07T02:27:37;98649.88;;;0.69;100.00
64078;BME280;51039;49.696;10.808;2023-12-07T02:30:05;98658.66;;;0.68;100.00
64078;BME280;51039;49.696;10.808;2023-12-07T02:32:31;98662.50;;;0.64;100.00
64078;BME280;51039;49.696;10.808;2023-12-07T02:34:57;98658.50;;;0.60;100.00
64078;BME280;51039;49.696;10.808;2023-12-07T02:37:23;98657.66;;;0.59;100.00
64078;BME280;51039;49.696;10.808;2023-12-07T02:39:53;98655.59;;;0.53;100.00
64078;BME280;51039;49.696;10.808;2023-12-07T02:42:20;98652.25;;;0.42;100.00
64078;BME280;51039;49.696;10.808;2023-12-07T02:44:47;98650.75;;;0.39;100.00
64078;BME280;51039;49.696;10.808;2023-12-07T02:47:13;98656.31;;;0.34;100.00
64078;BME280;51039;49.696;10.808;2023-12-07T02:49:39;98649.47;;;0.33;100.00
64078;BME280;51039;49.696;10.808;2023-12-07T02:52:04;98647.56;;;0.35;100.00
64078;BME280;51039;49.696;10.808;2023-12-07T02:54:30;98651.41;;;0.31;100.00
64078;BME280;51039;49.696;10.808;2023-12-07T02:56:55;98653.31;;;0.29;100.00
64078;BME280;51039;49.696;10.808;2023-12-07T02:59:20;98656.84;;;0.28;100.00
64078;BME280;51039;49.696;10.808;2023-12-07T03:01:46;98662.88;;;0.29;100.00
64078;BME280;51039;49.696;10.808;2023-12-07T03:04:11;98659.97;;;0.22;100.00
64078;BME280;51039;49.696;10.808;2023-12-07T03:06:36;98660.78;;;0.23;100.00
64078;BME280;51039;49.696;10.808;2023-12-07T03:09:02;98658.06;;;0.24;100.00
64078;BME280;51039;49.696;10.808;2023-12-07T03:11:28;98662.59;;;0.22;100.00
64078;BME280;51039;49.696;10.808;2023-12-07T03:13:53;98664.50;;;0.20;100.00
64078;BME280;51039;49.696;10.808;2023-12-07T03:16:18;98668.63;;;0.23;100.00
64078;BME280;51039;49.696;10.808;2023-12-07T03:18:44;98667.78;;;0.22;100.00
64078;BME280;51039;49.696;10.808;2023-12-07T03:21:09;98672.44;;;0.18;100.00
64078;BME280;51039;49.696;10.808;2023-12-07T03:23:34;98669.72;;;0.20;100.00
64078;BME280;51039;49.696;10.808;2023-12-07T03:26:00;98671.63;;;0.18;100.00
64078;BME280;51039;49.696;10.808;2023-12-07T03:28:26;98678.47;;;0.19;100.00
64078;BME280;51039;49.696;10.808;2023-12-07T03:30:51;98676.13;;;0.16;100.00
64078;BME280;51039;49.696;10.808;2023-12-07T03:33:16;98678.16;;;0.12;100.00
64078;BME280;51039;49.696;10.808;2023-12-07T03:35:42;98678.75;;;0.16;100.00
64078;BME280;51039;49.696;10.808;2023-12-07T03:38:07;98682.84;;;0.18;100.00
64078;BME280;51039;49.696;10.808;2023-12-07T03:40:32;98669.38;;;0.13;100.00
64078;BME280;51039;49.696;10.808;2023-12-07T03:42:58;98680.06;;;0.10;100.00
64078;BME280;51039;49.696;10.808;2023-12-07T03:45:23;98681.28;;;0.06;100.00
64078;BME280;51039;49.696;10.808;2023-12-07T03:47:49;98679.75;;;0.04;100.00
64078;BME280;51039;49.696;10.808;2023-12-07T03:50:14;98684.00;;;0.05;100.00
64078;BME280;51039;49.696;10.808;2023-12-07T03:52:40;98684.41;;;0.00;100.00
64078;BME280;51039;49.696;10.808;2023-12-07T03:55:05;98691.19;;;-0.09;100.00
64078;BME280;51039;49.696;10.808;2023-12-07T03:57:31;98696.28;;;-0.07;100.00
64078;BME280;51039;49.696;10.808;2023-12-07T03:59:56;98694.25;;;-0.04;100.00
64078;BME280;51039;49.696;10.808;2023-12-07T04:02:21;98696.00;;;-0.04;100.00
64078;BME280;51039;49.696;10.808;2023-12-07T04:04:47;98699.69;;;-0.07;100.00
64078;BME280;51039;49.696;10.808;2023-12-07T04:07:12;98701.09;;;-0.03;100.00
64078;BME280;51039;49.696;10.808;2023-12-07T04:09:38;98702.75;;;-0.02;100.00
64078;BME280;51039;49.696;10.808;2023-12-07T04:12:03;98703.56;;;-0.01;100.00
64078;BME280;51039;49.696;10.808;2023-12-07T04:14:29;98700.84;;;0.01;100.00
64078;BME280;51039;49.696;10.808;2023-12-07T04:16:54;98695.66;;;0.01;100.00
64078;BME280;51039;49.696;10.808;2023-12-07T04:19:19;98705.47;;;-0.03;100.00
64078;BME280;51039;49.696;10.808;2023-12-07T04:21:44;98703.56;;;-0.01;100.00
64078;BME280;51039;49.696;10.808;2023-12-07T04:24:10;98702.47;;;0.02;100.00
64078;BME280;51039;49.696;10.808;2023-12-07T04:26:35;98704.28;;;0.01;100.00
64078;BME280;51039;49.696;10.808;2023-12-07T04:29:00;98707.28;;;-0.04;100.00
64078;BME280;51039;49.696;10.808;2023-12-07T04:31:26;98707.97;;;-0.02;100.00
64078;BME280;51039;49.696;10.808;2023-12-07T04:33:51;98702.06;;;-0.04;100.00
64078;BME280;51039;49.696;10.808;2023-12-07T04:36:16;98701.47;;;-0.07;100.00
64078;BME280;51039;49.696;10.808;2023-12-07T04:38:41;98705.41;;;-0.13;100.00
64078;BME280;51039;49.696;10.808;2023-12-07T04:41:07;98706.75;;;-0.18;100.00
64078;BME280;51039;49.696;10.808;2023-12-07T04:43:32;98715.19;;;-0.26;100.00
64078;BME280;51039;49.696;10.808;2023-12-07T04:45:58;98717.31;;;-0.31;100.00
64078;BME280;51039;49.696;10.808;2023-12-07T04:48:23;98718.28;;;-0.32;100.00
64078;BME280;51039;49.696;10.808;2023-12-07T04:50:50;98714.53;;;-0.40;100.00
64078;BME280;51039;49.696;10.808;2023-12-07T04:53:15;98726.84;;;-0.42;100.00
64078;BME280;51039;49.696;10.808;2023-12-07T04:55:41;98719.25;;;-0.45;100.00
64078;BME280;51039;49.696;10.808;2023-12-07T04:58:12;98725.78;;;-0.50;100.00
64078;BME280;51039;49.696;10.808;2023-12-07T05:00:37;98718.88;;;-0.61;100.00
64078;BME280;51039;49.696;10.808;2023-12-07T05:03:02;98722.41;;;-0.73;100.00
64078;BME280;51039;49.696;10.808;2023-12-07T05:05:28;98725.63;;;-0.81;100.00
64078;BME280;51039;49.696;10.808;2023-12-07T05:07:53;98717.63;;;-0.89;100.00
64078;BME280;51039;49.696;10.808;2023-12-07T05:10:18;98731.47;;;-1.00;100.00
64078;BME280;51039;49.696;10.808;2023-12-07T05:12:44;98728.28;;;-1.04;100.00
64078;BME280;51039;49.696;10.808;2023-12-07T05:15:09;98728.28;;;-1.04;100.00
64078;BME280;51039;49.696;10.808;2023-12-07T05:17:35;98733.59;;;-1.05;100.00
64078;BME280;51039;49.696;10.808;2023-12-07T05:20:00;98735.00;;;-1.12;100.00
64078;BME280;51039;49.696;10.808;2023-12-07T05:22:26;98731.81;;;-1.16;100.00
64078;BME280;51039;49.696;10.808;2023-12-07T05:24:52;98737.88;;;-1.15;100.00
64078;BME280;51039;49.696;10.808;2023-12-07T05:27:17;98747.09;;;-1.11;100.00
64078;BME280;51039;49.696;10.808;2023-12-07T05:29:43;98737.13;;;-1.06;100.00
64078;BME280;51039;49.696;10.808;2023-12-07T05:32:08;98743.88;;;-1.04;100.00
64078;BME280;51039;49.696;10.808;2023-12-07T05:34:33;98748.94;;;-1.02;100.00
64078;BME280;51039;49.696;10.808;2023-12-07T05:37:00;98742.00;;;-1.02;100.00
64078;BME280;51039;49.696;10.808;2023-12-07T05:39:25;98746.34;;;-1.02;100.00
64078;BME280;51039;49.696;10.808;2023-12-07T05:41:50;98735.97;;;-1.13;100.00
64078;BME280;51039;49.696;10.808;2023-12-07T05:44:16;98744.94;;;-1.17;100.00
64078;BME280;51039;49.696;10.808;2023-12-07T05:46:46;98742.13;;;-1.14;100.00
64078;BME280;51039;49.696;10.808;2023-12-07T05:49:12;98742.34;;;-1.17;100.00
64078;BME280;51039;49.696;10.808;2023-12-07T05:51:37;98744.94;;;-1.17;100.00
64078;BME280;51039;49.696;10.808;2023-12-07T05:54:03;98748.50;;;-1.19;100.00
64078;BME280;51039;49.696;10.808;2023-12-07T05:56:28;98745.06;;;-1.19;100.00
64078;BME280;51039;49.696;10.808;2023-12-07T05:58:53;98746.97;;;-1.21;100.00
64078;BME280;51039;49.696;10.808;2023-12-07T06:01:19;98746.00;;;-1.20;100.00
64078;BME280;51039;49.696;10.808;2023-12-07T06:03:44;98744.94;;;-1.17;100.00
64078;BME280;51039;49.696;10.808;2023-12-07T06:06:10;98744.22;;;-1.20;100.00
64078;BME280;51039;49.696;10.808;2023-12-07T06:08:36;98744.47;;;-1.23;100.00
64078;BME280;51039;49.696;10.808;2023-12-07T06:11:02;98741.88;;;-1.23;100.00
64078;BME280;51039;49.696;10.808;2023-12-07T06:13:27;98741.06;;;-1.23;100.00
64078;BME280;51039;49.696;10.808;2023-12-07T06:15:53;98745.41;;;-1.24;100.00
64078;BME280;51039;49.696;10.808;2023-12-07T06:18:18;98748.59;;;-1.20;100.00
64078;BME280;51039;49.696;10.808;2023-12-07T06:20:43;98746.81;;;-1.20;100.00
64078;BME280;51039;49.696;10.808;2023-12-07T06:23:08;98755.59;;;-1.21;100.00
64078;BME280;51039;49.696;10.808;2023-12-07T06:25:37;98752.63;;;-1.27;100.00
64078;BME280;51039;49.696;10.808;2023-12-07T06:28:06;98753.78;;;-1.43;100.00
64078;BME280;51039;49.696;10.808;2023-12-07T06:30:32;98759.72;;;-1.52;100.00
64078;BME280;51039;49.696;10.808;2023-12-07T06:32:57;98765.47;;;-1.60;100.00
64078;BME280;51039;49.696;10.808;2023-12-07T06:35:23;98761.56;;;-1.65;100.00
64078;BME280;51039;49.696;10.808;2023-12-07T06:37:48;98759.31;;;-1.70;100.00
64078;BME280;51039;49.696;10.808;2023-12-07T06:40:13;98764.16;;;-1.76;100.00
64078;BME280;51039;49.696;10.808;2023-12-07T06:42:39;98761.88;;;-1.81;100.00
64078;BME280;51039;49.696;10.808;2023-12-07T06:45:04;98759.63;;;-1.86;100.00
64078;BME280;51039;49.696;10.808;2023-12-07T06:47:30;98756.31;;;-1.88;100.00
64078;BME280;51039;49.696;10.808;2023-12-07T06:49:56;98765.88;;;-1.88;100.00
64078;BME280;51039;49.696;10.808;2023-12-07T06:52:21;98767.53;;;-1.87;100.00
64078;BME280;51039;49.696;10.808;2023-12-07T06:54:46;98778.38;;;-1.93;100.00
64078;BME280;51039;49.696;10.808;2023-12-07T06:57:12;98771.75;;;-1.98;100.00
64078;BME280;51039;49.696;10.808;2023-12-07T06:59:37;98784.88;;;-1.88;100.00
64078;BME280;51039;49.696;10.808;2023-12-07T07:02:03;98762.25;;;-1.74;100.00
64078;BME280;51039;49.696;10.808;2023-12-07T07:04:28;98770.50;;;-1.81;100.00
64078;BME280;51039;49.696;10.808;2023-12-07T07:06:54;98783.34;;;-1.79;100.00
64078;BME280;51039;49.696;10.808;2023-12-07T07:09:20;98790.81;;;-1.74;100.00
64078;BME280;51039;49.696;10.808;2023-12-07T07:11:48;98786.13;;;-1.69;100.00
64078;BME280;51039;49.696;10.808;2023-12-07T07:14:14;98791.94;;;-1.43;100.00
64078;BME280;51039;49.696;10.808;2023-12-07T07:16:40;98787.97;;;-1.13;100.00
64078;BME280;51039;49.696;10.808;2023-12-07T07:19:06;98797.66;;;-1.27;100.00
64078;BME280;51039;49.696;10.808;2023-12-07T07:21:31;98797.75;;;-1.28;100.00
64078;BME280;51039;49.696;10.808;2023-12-07T07:23:57;98801.88;;;-1.26;100.00
64078;BME280;51039;49.696;10.808;2023-12-07T07:26:22;98799.75;;;-1.32;100.00
64078;BME280;51039;49.696;10.808;2023-12-07T07:28:50;98799.28;;;-1.26;100.00
64078;BME280;51039;49.696;10.808;2023-12-07T07:31:15;98793.63;;;-1.20;100.00
64078;BME280;51039;49.696;10.808;2023-12-07T07:33:40;98795.63;;;-1.12;100.00
64078;BME280;51039;49.696;10.808;2023-12-07T07:36:06;98796.00;;;-1.05;100.00
64078;BME280;51039;49.696;10.808;2023-12-07T07:38:31;98806.59;;;-1.20;100.00
64078;BME280;51039;49.696;10.808;2023-12-07T07:40:57;98806.88;;;-1.00;100.00
64078;BME280;51039;49.696;10.808;2023-12-07T07:43:22;98811.13;;;-0.88;100.00
64078;BME280;51039;49.696;10.808;2023-12-07T07:45:47;98806.16;;;-0.80;100.00
64078;BME280;51039;49.696;10.808;2023-12-07T07:48:13;98807.34;;;-0.72;100.00
64078;BME280;51039;49.696;10.808;2023-12-07T07:50:39;98811.13;;;-0.65;100.00
64078;BME280;51039;49.696;10.808;2023-12-07T07:53:04;98810.63;;;-0.59;100.00
64078;BME280;51039;49.696;10.808;2023-12-07T07:55:30;98802.47;;;-0.66;100.00
64078;BME280;51039;49.696;10.808;2023-12-07T07:57:56;98809.44;;;-0.66;100.00
64078;BME280;51039;49.696;10.808;2023-12-07T08:00:21;98803.53;;;-0.68;100.00
64078;BME280;51039;49.696;10.808;2023-12-07T08:02:46;98807.44;;;-0.63;100.00
64078;BME280;51039;49.696;10.808;2023-12-07T08:05:12;98806.34;;;-0.60;100.00
64078;BME280;51039;49.696;10.808;2023-12-07T08:07:38;98807.44;;;-0.63;100.00
64078;BME280;51039;49.696;10.808;2023-12-07T08:10:04;98802.81;;;-0.59;100.00
64078;BME280;51039;49.696;10.808;2023-12-07T08:12:30;98809.44;;;-0.55;100.00
64078;BME280;51039;49.696;10.808;2023-12-07T08:14:56;98810.41;;;-0.67;100.00
64078;BME280;51039;49.696;10.808;2023-12-07T08:17:21;98807.91;;;-0.57;100.00
64078;BME280;51039;49.696;10.808;2023-12-07T08:19:46;98811.19;;;-0.44;100.00
64078;BME280;51039;49.696;10.808;2023-12-07T08:22:12;98813.72;;;0.11;100.00
64078;BME280;51039;49.696;10.808;2023-12-07T08:24:40;98815.59;;;0.62;100.00
64078;BME280;51039;49.696;10.808;2023-12-07T08:27:06;98813.41;;;1.19;100.00
64078;BME280;51039;49.696;10.808;2023-12-07T08:29:31;98806.41;;;1.89;100.00
64078;BME280;51039;49.696;10.808;2023-12-07T08:31:56;98818.25;;;2.32;100.00
64078;BME280;51039;49.696;10.808;2023-12-07T08:34:22;98817.00;;;3.03;100.00
64078;BME280;51039;49.696;10.808;2023-12-07T08:36:49;98820.56;;;3.12;100.00
64078;BME280;51039;49.696;10.808;2023-12-07T08:39:14;98810.38;;;3.37;100.00
64078;BME280;51039;49.696;10.808;2023-12-07T08:41:42;98820.78;;;3.56;100.00
64078;BME280;51039;49.696;10.808;2023-12-07T08:44:10;98826.72;;;3.21;100.00
64078;BME280;51039;49.696;10.808;2023-12-07T08:46:36;98832.88;;;2.92;100.00
64078;BME280;51039;49.696;10.808;2023-12-07T08:49:01;98838.41;;;2.89;100.00
64078;BME280;51039;49.696;10.808;2023-12-07T08:51:28;98844.16;;;3.02;100.00
64078;BME280;51039;49.696;10.808;2023-12-07T08:53:53;98834.06;;;3.07;100.00
64078;BME280;51039;49.696;10.808;2023-12-07T08:56:19;98843.31;;;3.02;100.00
64078;BME280;51039;49.696;10.808;2023-12-07T08:58:44;98843.06;;;2.95;100.00
64078;BME280;51039;49.696;10.808;2023-12-07T09:01:10;98843.75;;;2.97;100.00
64078;BME280;51039;49.696;10.808;2023-12-07T09:03:36;98845.41;;;2.88;100.00
64078;BME280;51039;49.696;10.808;2023-12-07T09:06:02;98842.00;;;3.15;100.00
64078;BME280;51039;49.696;10.808;2023-12-07T09:08:27;98842.09;;;3.33;100.00
64078;BME280;51039;49.696;10.808;2023-12-07T09:10:53;98845.13;;;3.29;100.00
64078;BME280;51039;49.696;10.808;2023-12-07T09:13:18;98841.50;;;3.40;100.00
64078;BME280;51039;49.696;10.808;2023-12-07T09:15:43;98844.81;;;3.42;100.00
64078;BME280;51039;49.696;10.808;2023-12-07T09:18:09;98839.28;;;3.45;100.00
64078;BME280;51039;49.696;10.808;2023-12-07T09:20:35;98842.63;;;3.37;100.00
64078;BME280;51039;49.696;10.808;2023-12-07T09:23:01;98837.22;;;3.39;100.00
64078;BME280;51039;49.696;10.808;2023-12-07T09:25:26;98841.38;;;3.41;100.00
64078;BME280;51039;49.696;10.808;2023-12-07T09:27:53;98839.28;;;3.45;100.00
64078;BME280;51039;49.696;10.808;2023-12-07T09:30:18;98838.34;;;3.36;100.00
64078;BME280;51039;49.696;10.808;2023-12-07T09:32:44;98835.38;;;3.21;100.00
64078;BME280;51039;49.696;10.808;2023-12-07T09:35:09;98841.91;;;3.07;100.00
64078;BME280;51039;49.696;10.808;2023-12-07T09:37:44;98833.97;;;2.99;100.00
64078;BME280;51039;49.696;10.808;2023-12-07T09:40:20;98834.00;;;2.80;100.00
64078;BME280;51039;49.696;10.808;2023-12-07T09:42:46;98834.00;;;2.80;100.00
64078;BME280;51039;49.696;10.808;2023-12-07T09:45:12;98831.47;;;2.50;100.00
64078;BME280;51039;49.696;10.808;2023-12-07T09:47:43;98833.66;;;2.26;100.00
64078;BME280;51039;49.696;10.808;2023-12-07T09:50:12;98822.94;;;2.48;100.00
64078;BME280;51039;49.696;10.808;2023-12-07T09:52:41;98820.78;;;2.81;100.00
64078;BME280;51039;49.696;10.808;2023-12-07T09:55:07;98816.06;;;2.85;100.00
64078;BME280;51039;49.696;10.808;2023-12-07T09:57:33;98811.19;;;2.72;100.00
64078;BME280;51039;49.696;10.808;2023-12-07T09:59:59;98811.09;;;3.29;100.00
64078;BME280;51039;49.696;10.808;2023-12-07T10:02:25;98809.97;;;3.87;100.00
64078;BME280;51039;49.696;10.808;2023-12-07T10:05:03;98804.78;;;4.13;100.00
64078;BME280;51039;49.696;10.808;2023-12-07T10:07:45;98808.44;;;4.56;100.00
64078;BME280;51039;49.696;10.808;2023-12-07T10:10:12;98805.59;;;4.76;100.00
64078;BME280;51039;49.696;10.808;2023-12-07T10:12:45;98796.44;;;4.80;100.00
64078;BME280;51039;49.696;10.808;2023-12-07T10:15:18;98800.78;;;4.71;100.00
64078;BME280;51039;49.696;10.808;2023-12-07T10:20:21;98808.66;;;3.73;100.00
64078;BME280;51039;49.696;10.808;2023-12-07T10:23:08;98811.72;;;3.68;100.00
64078;BME280;51039;49.696;10.808;2023-12-07T10:25:38;98809.97;;;3.87;100.00
64078;BME280;51039;49.696;10.808;2023-12-07T10:28:04;98808.31;;;3.86;100.00
64078;BME280;51039;49.696;10.808;2023-12-07T10:30:32;98804.53;;;3.70;100.00
64078;BME280;51039;49.696;10.808;2023-12-07T10:32:58;98802.53;;;3.37;100.00
64078;BME280;51039;49.696;10.808;2023-12-07T10:35:23;98791.53;;;3.97;100.00
64078;BME280;51039;49.696;10.808;2023-12-07T10:37:48;98786.66;;;4.20;100.00
64078;BME280;51039;49.696;10.808;2023-12-07T10:40:14;98785.06;;;4.27;100.00
64078;BME280;51039;49.696;10.808;2023-12-07T10:42:40;98795.34;;;4.20;100.00
64078;BME280;51039;49.696;10.808;2023-12-07T10:45:12;98788.97;;;4.41;100.00
64078;BME280;51039;49.696;10.808;2023-12-07T10:47:40;98783.88;;;4.65;100.00
64078;BME280;51039;49.696;10.808;2023-12-07T10:50:09;98782.97;;;3.77;100.00
64078;BME280;51039;49.696;10.808;2023-12-07T10:52:44;98784.28;;;4.08;100.00
64078;BME280;51039;49.696;10.808;2023-12-07T10:55:16;98789.53;;;4.35;100.00
64078;BME280;51039;49.696;10.808;2023-12-07T10:57:45;98782.19;;;4.90;100.00
64078;BME280;51039;49.696;10.808;2023-12-07T11:00:12;98777.06;;;5.07;97.93
64078;BME280;51039;49.696;10.808;2023-12-07T11:02:37;98775.31;;;4.89;99.33
64078;BME280;51039;49.696;10.808;2023-12-07T11:05:05;98787.47;;;3.39;100.00
64078;BME280;51039;49.696;10.808;2023-12-07T11:07:34;98770.75;;;3.49;100.00
64078;BME280;51039;49.696;10.808;2023-12-07T11:10:27;98767.03;;;3.70;100.00
64078;BME280;51039;49.696;10.808;2023-12-07T11:15:47;98765.03;;;3.64;100.00
64078;BME280;51039;49.696;10.808;2023-12-07T11:18:13;98760.06;;;3.79;100.00
64078;BME280;51039;49.696;10.808;2023-12-07T11:20:45;98756.34;;;3.81;100.00
64078;BME280;51039;49.696;10.808;2023-12-07T11:23:15;98752.59;;;3.84;100.00
64078;BME280;51039;49.696;10.808;2023-12-07T11:25:43;98748.91;;;4.12;100.00
64078;BME280;51039;49.696;10.808;2023-12-07T11:28:10;98742.59;;;4.23;100.00
64078;BME280;51039;49.696;10.808;2023-12-07T11:30:36;98746.44;;;4.11;100.00
64078;BME280;51039;49.696;10.808;2023-12-07T11:33:03;98741.31;;;3.83;100.00
64078;BME280;51039;49.696;10.808;2023-12-07T11:35:29;98736.13;;;3.91;100.00
64078;BME280;51039;49.696;10.808;2023-12-07T11:40:34;98728.25;;;3.91;100.00
64078;BME280;51039;49.696;10.808;2023-12-07T11:43:01;98730.41;;;3.96;100.00
64078;BME280;51039;49.696;10.808;2023-12-07T11:45:35;98730.28;;;3.62;100.00
64078;BME280;51039;49.696;10.808;2023-12-07T11:48:21;98717.88;;;3.64;100.00
64078;BME280;51039;49.696;10.808;2023-12-07T11:53:26;98721.88;;;3.40;100.00
64078;BME280;51039;49.696;10.808;2023-12-07T11:55:55;98719.03;;;3.51;100.00
64078;BME280;51039;49.696;10.808;2023-12-07T11:58:21;98715.94;;;3.66;100.00
64078;BME280;51039;49.696;10.808;2023-12-07T12:00:47;98707.50;;;3.98;100.00
64078;BME280;51039;49.696;10.808;2023-12-07T12:03:13;98696.69;;;3.57;100.00
64078;BME280;51039;49.696;10.808;2023-12-07T12:05:39;98698.47;;;3.57;100.00
64078;BME280;51039;49.696;10.808;2023-12-07T12:08:05;98704.47;;;3.67;100.00
64078;BME280;51039;49.696;10.808;2023-12-07T12:10:33;98704.06;;;3.98;100.00
64078;BME280;51039;49.696;10.808;2023-12-07T12:13:02;98699.50;;;4.00;100.00
64078;BME280;51039;49.696;10.808;2023-12-07T12:15:28;98696.28;;;3.88;100.00
64078;BME280;51039;49.696;10.808;2023-12-07T12:17:55;98694.22;;;3.73;100.00
64078;BME280;51039;49.696;10.808;2023-12-07T12:20:21;98694.53;;;3.52;100.00
64078;BME280;51039;49.696;10.808;2023-12-07T12:22:47;98698.69;;;3.45;100.00
64078;BME280;51039;49.696;10.808;2023-12-07T12:25:12;98691.38;;;3.49;100.00
64078;BME280;51039;49.696;10.808;2023-12-07T12:27:38;98693.03;;;3.68;100.00
64078;BME280;51039;49.696;10.808;2023-12-07T12:30:05;98685.16;;;3.68;100.00
64078;BME280;51039;49.696;10.808;2023-12-07T12:32:43;98688.13;;;3.73;100.00
64078;BME280;51039;49.696;10.808;2023-12-07T12:35:09;98684.94;;;3.61;100.00
64078;BME280;51039;49.696;10.808;2023-12-07T12:37:35;98683.81;;;3.64;100.00
64078;BME280;51039;49.696;10.808;2023-12-07T12:40:07;98680.09;;;3.48;100.00
64078;BME280;51039;49.696;10.808;2023-12-07T12:42:33;98678.50;;;3.38;100.00
64078;BME280;51039;49.696;10.808;2023-12-07T12:45:02;98679.53;;;3.27;100.00
64078;BME280;51039;49.696;10.808;2023-12-07T12:47:28;98678.38;;;3.11;100.00
64078;BME280;51039;49.696;10.808;2023-12-07T12:49:54;98680.91;;;3.03;100.00
64078;BME280;51039;49.696;10.808;2023-12-07T12:52:19;98683.53;;;3.03;100.00
64078;BME280;51039;49.696;10.808;2023-12-07T12:54:44;98676.56;;;2.94;100.00
64078;BME280;51039;49.696;10.808;2023-12-07T12:57:10;98682.97;;;2.82;100.00